Time;durP1;ratioP1;P1;durP2;ratioP2;P2;SDS_P1;SDS_P2;PMS_P1;PMS_P2;Temp;Humidity;BMP_temperature;BMP_pressure;BME280_temperature;BME280_humidity;BME280_pressure;Samples;Min_cycle;Max_cycle;Signal;HPM_P1;HPM_P2
2024/01/14 00:01:16;;;;;;;95.38;30.00;;;-3.20;99.90;;;;;;7568960;19;19922;-74
2024/01/14 00:03:48;;;;;;;91.50;28.70;;;-3.30;99.90;;;;;;7561785;19;20361;-74
2024/01/14 00:06:21;;;;;;;92.82;32.10;;;-3.40;99.90;;;;;;7546134;19;20037;-74
2024/01/14 00:08:54;;;;;;;110.90;33.42;;;-3.40;99.90;;;;;;7556993;19;20045;-74
2024/01/14 00:11:26;;;;;;;96.78;30.45;;;-3.30;99.90;;;;;;7566752;19;20018;-75
2024/01/14 00:13:59;;;;;;;101.20;31.45;;;-3.30;99.90;;;;;;7553404;19;20110;-74
2024/01/14 00:16:34;;;;;;;90.80;28.55;;;-3.20;99.90;;;;;;7553329;19;20041;-73
2024/01/14 00:19:07;;;;;;;91.82;29.90;;;-3.20;99.90;;;;;;7577429;19;20026;-74
2024/01/14 00:21:39;;;;;;;96.47;29.67;;;-3.10;99.90;;;;;;7567794;19;20014;-74
2024/01/14 00:24:11;;;;;;;85.50;29.05;;;-3.20;99.90;;;;;;7564092;19;20110;-73
2024/01/14 00:26:44;;;;;;;92.97;30.30;;;-3.10;99.90;;;;;;7533056;19;20037;-73
2024/01/14 00:29:17;;;;;;;90.00;31.13;;;-3.10;99.90;;;;;;7569329;19;20375;-74
2024/01/14 00:31:49;;;;;;;92.07;29.17;;;-3.10;99.90;;;;;;7561861;19;20406;-75
2024/01/14 00:34:21;;;;;;;86.25;28.77;;;-3.10;99.90;;;;;;7568589;19;20287;-74
2024/01/14 00:36:54;;;;;;;103.23;30.80;;;-3.10;99.90;;;;;;7545546;19;20393;-73
2024/01/14 00:39:27;;;;;;;97.22;28.77;;;-3.20;99.90;;;;;;7561703;19;20067;-73
2024/01/14 00:42:00;;;;;;;93.40;31.02;;;-3.10;99.90;;;;;;7558073;19;20458;-72
2024/01/14 00:44:32;;;;;;;92.60;28.98;;;-3.10;99.90;;;;;;7565624;19;20010;-75
2024/01/14 00:47:04;;;;;;;91.95;29.90;;;-3.10;99.90;;;;;;7557507;19;20021;-72
2024/01/14 00:49:38;;;;;;;92.97;31.55;;;-3.00;99.90;;;;;;7562426;19;20792;-72
2024/01/14 00:52:11;;;;;;;89.75;31.45;;;-3.10;99.90;;;;;;7538617;19;20019;-75
2024/01/14 00:54:44;;;;;;;102.55;30.58;;;-3.20;99.90;;;;;;7555079;19;20064;-75
2024/01/14 00:57:18;;;;;;;98.03;31.35;;;-3.10;99.90;;;;;;7570525;19;20018;-74
2024/01/14 00:59:50;;;;;;;89.63;31.13;;;-3.10;99.90;;;;;;7556772;19;20473;-75
2024/01/14 01:02:22;;;;;;;91.50;30.20;;;-3.10;99.90;;;;;;7572119;19;20493;-74
2024/01/14 01:04:54;;;;;;;89.00;28.73;;;-3.10;99.90;;;;;;7558497;19;20090;-75
2024/01/14 01:07:27;;;;;;;88.63;30.63;;;-3.10;99.90;;;;;;7564296;19;20093;-75
2024/01/14 01:10:00;;;;;;;97.53;32.03;;;-3.00;99.90;;;;;;7549598;19;21011;-74
2024/01/14 01:12:32;;;;;;;88.90;30.58;;;-3.00;99.90;;;;;;7549234;19;21216;-73
2024/01/14 01:15:06;;;;;;;104.65;31.33;;;-3.10;99.90;;;;;;7559929;19;20058;-74
2024/01/14 01:17:39;;;;;;;;;;;-3.10;99.90;;;;;;7548353;19;20010;-74
2024/01/14 01:20:11;;;;;;;92.15;30.02;;;-3.10;99.90;;;;;;7555531;19;19952;-74
2024/01/14 01:22:43;;;;;;;84.50;28.40;;;-3.10;99.90;;;;;;7556338;19;20023;-74
2024/01/14 01:25:16;;;;;;;90.70;28.75;;;-3.20;99.90;;;;;;7564705;19;20010;-74
2024/01/14 01:27:49;;;;;;;90.55;29.13;;;-3.20;99.90;;;;;;7561864;19;20528;-74
2024/01/14 01:30:22;;;;;;;82.00;29.98;;;-3.30;99.90;;;;;;7555893;19;20040;-74
2024/01/14 01:32:54;;;;;;;82.47;28.63;;;-3.30;99.90;;;;;;7557021;19;20828;-75
2024/01/14 01:35:27;;;;;;;91.27;30.57;;;-3.30;99.90;;;;;;7559213;19;20925;-74
2024/01/14 01:37:59;;;;;;;92.18;30.08;;;-3.30;99.90;;;;;;7550292;19;20101;-74
2024/01/14 01:40:31;;;;;;;91.38;30.85;;;-3.30;99.90;;;;;;7541024;19;20040;-74
2024/01/14 01:43:04;;;;;;;81.70;28.88;;;-3.30;99.90;;;;;;7557707;19;20121;-71
2024/01/14 01:45:37;;;;;;;80.47;29.58;;;-3.20;99.90;;;;;;7563961;19;20872;-72
2024/01/14 01:48:09;;;;;;;87.70;27.95;;;-3.30;99.90;;;;;;7558491;19;20015;-75
2024/01/14 01:50:42;;;;;;;95.23;29.73;;;-3.20;99.90;;;;;;7547318;19;20020;-74
2024/01/14 01:53:15;;;;;;;;;;;-3.30;99.90;;;;;;7550822;19;20007;-71
2024/01/14 01:55:48;;;;;;;81.55;27.50;;;-3.30;99.90;;;;;;7535503;19;20306;-74
2024/01/14 01:58:20;;;;;;;84.13;27.43;;;-3.30;99.90;;;;;;7559398;19;20052;-75
2024/01/14 02:00:53;;;;;;;94.13;30.03;;;-3.30;99.90;;;;;;7550185;19;20029;-74
2024/01/14 02:03:25;;;;;;;89.90;29.13;;;-3.30;99.90;;;;;;7545506;19;20287;-75
2024/01/14 02:05:58;;;;;;;93.40;29.90;;;-3.30;99.90;;;;;;7532404;19;20295;-75
2024/01/14 02:08:31;;;;;;;;;;;-3.30;99.90;;;;;;7558016;19;20010;-75
2024/01/14 02:11:03;;;;;;;86.13;27.88;;;-3.30;99.90;;;;;;7549656;19;20014;-73
2024/01/14 02:13:36;;;;;;;78.85;27.25;;;-3.40;99.90;;;;;;7553542;19;20106;-74
2024/01/14 02:16:08;;;;;;;96.10;31.08;;;-3.40;99.90;;;;;;7546739;19;20022;-74
2024/01/14 02:18:40;;;;;;;97.55;31.90;;;-3.40;99.90;;;;;;7554997;19;20085;-74
2024/01/14 02:21:19;;;;;;;93.35;29.88;;;-3.30;99.90;;;;;;7543463;19;20018;-74
2024/01/14 02:24:19;;;;;;;93.57;30.95;;;-3.30;99.90;;;;;;7546045;19;20029;-74
2024/01/14 02:26:51;;;;;;;92.35;29.35;;;-3.40;99.90;;;;;;7545476;19;20018;-74
2024/01/14 02:29:27;;;;;;;96.22;30.67;;;-3.50;99.90;;;;;;7564177;19;20018;-74
2024/01/14 02:31:59;;;;;;;85.43;30.40;;;-3.50;99.90;;;;;;7548462;19;20129;-74
2024/01/14 02:34:35;;;;;;;90.43;29.85;;;-3.40;99.90;;;;;;7556159;19;20131;-74
2024/01/14 02:37:08;;;;;;;94.93;29.60;;;-3.30;99.90;;;;;;7546101;19;20011;-73
2024/01/14 02:39:41;;;;;;;84.95;28.20;;;-3.30;99.90;;;;;;7556517;19;20022;-74
2024/01/14 02:42:13;;;;;;;91.22;30.50;;;-3.40;99.90;;;;;;7545857;19;20018;-74
2024/01/14 02:44:45;;;;;;;94.35;30.05;;;-3.40;99.90;;;;;;7532372;19;21096;-74
2024/01/14 02:47:18;;;;;;;92.20;29.45;;;-3.40;99.90;;;;;;7552890;19;20022;-75
2024/01/14 02:49:50;;;;;;;93.53;30.48;;;-3.40;99.90;;;;;;7542131;19;20033;-74
2024/01/14 02:52:22;;;;;;;90.35;27.48;;;-3.40;99.90;;;;;;7550267;19;20007;-73
2024/01/14 02:54:55;;;;;;;90.27;30.13;;;-3.40;99.90;;;;;;7541374;19;20094;-74
2024/01/14 02:57:27;;;;;;;84.38;28.42;;;-3.40;99.90;;;;;;7548137;19;20018;-75
2024/01/14 02:59:59;;;;;;;88.18;28.58;;;-3.40;99.90;;;;;;7542705;19;20022;-75
2024/01/14 03:02:33;;;;;;;81.80;29.08;;;-3.40;99.90;;;;;;7549304;19;20360;-74
2024/01/14 03:05:06;;;;;;;86.83;28.53;;;-3.50;99.90;;;;;;7540699;19;20101;-73
2024/01/14 03:07:38;;;;;;;95.35;32.40;;;-3.60;99.90;;;;;;7554022;19;20507;-74
2024/01/14 03:10:10;;;;;;;88.97;29.42;;;-3.60;99.90;;;;;;7544357;19;21117;-74
2024/01/14 03:12:42;;;;;;;86.37;29.40;;;-3.60;99.90;;;;;;7557430;19;22834;-74
2024/01/14 03:15:15;;;;;;;86.68;27.13;;;-3.50;99.90;;;;;;7544086;19;20634;-74
2024/01/14 03:17:48;;;;;;;86.50;28.27;;;-3.60;99.90;;;;;;7546761;19;20014;-73
2024/01/14 03:20:22;;;;;;;88.50;28.67;;;-3.60;99.90;;;;;;7557221;19;20019;-74
2024/01/14 03:22:55;;;;;;;75.68;26.63;;;-3.50;99.90;;;;;;7545673;19;20022;-73
2024/01/14 03:25:27;;;;;;;89.68;30.35;;;-3.60;99.90;;;;;;7551611;19;20021;-73
2024/01/14 03:27:59;;;;;;;90.93;27.73;;;-3.80;99.90;;;;;;7554364;19;20503;-74
2024/01/14 03:30:32;;;;;;;87.88;27.77;;;-3.70;99.90;;;;;;7548151;19;20117;-73
2024/01/14 03:33:04;;;;;;;85.13;29.93;;;-3.70;99.90;;;;;;7545925;19;20949;-72
2024/01/14 03:35:36;;;;;;;66.67;20.10;;;-3.80;99.90;;;;;;7546885;19;20018;-73
2024/01/14 03:38:09;;;;;;;79.00;24.85;;;-3.70;99.90;;;;;;7539112;19;20026;-72
2024/01/14 03:40:41;;;;;;;83.13;27.17;;;-3.90;99.90;;;;;;7555642;19;20033;-72
2024/01/14 03:43:13;;;;;;;98.28;29.17;;;-3.80;99.90;;;;;;7542639;19;20018;-73
2024/01/14 03:45:46;;;;;;;82.75;26.38;;;-3.90;99.90;;;;;;7545807;19;20023;-73
2024/01/14 03:48:18;;;;;;;91.90;29.27;;;-3.90;99.90;;;;;;7550370;19;20022;-73
2024/01/14 03:50:51;;;;;;;107.17;30.30;;;-4.00;99.90;;;;;;7552247;19;20025;-73
2024/01/14 03:53:23;;;;;;;87.57;28.52;;;-3.90;99.90;;;;;;7550482;19;20773;-73
2024/01/14 03:55:56;;;;;;;88.40;30.58;;;-3.90;99.90;;;;;;7550670;19;20927;-73
2024/01/14 03:58:28;;;;;;;94.67;29.20;;;-4.00;99.90;;;;;;7547681;19;20113;-73
2024/01/14 04:01:00;;;;;;;87.30;27.52;;;-4.00;99.90;;;;;;7541958;19;20086;-73
2024/01/14 04:03:32;;;;;;;77.65;22.80;;;-4.00;99.90;;;;;;7550147;19;20014;-72
2024/01/14 04:06:05;;;;;;;98.00;30.75;;;-4.00;99.90;;;;;;7541342;19;20109;-72
2024/01/14 04:08:38;;;;;;;78.78;27.65;;;-3.90;99.90;;;;;;7550943;19;20106;-73
2024/01/14 04:11:10;;;;;;;98.03;29.85;;;-3.90;99.90;;;;;;7551497;19;20007;-73
2024/01/14 04:13:43;;;;;;;109.07;32.15;;;-4.00;99.90;;;;;;7543173;19;20019;-73
2024/01/14 04:16:15;;;;;;;93.70;30.77;;;-4.00;99.90;;;;;;7540955;19;20504;-73
2024/01/14 04:18:48;;;;;;;95.82;31.13;;;-4.00;99.90;;;;;;7549593;19;20078;-72
2024/01/14 04:21:25;;;;;;;97.07;31.60;;;-4.10;99.90;;;;;;7557891;19;20029;-72
2024/01/14 04:24:03;;;;;;;97.47;29.08;;;-4.10;99.90;;;;;;7539483;19;20058;-73
2024/01/14 04:26:36;;;;;;;90.07;30.65;;;-4.10;99.90;;;;;;7540180;19;20423;-72
2024/01/14 04:29:08;;;;;;;84.05;29.65;;;-4.10;99.90;;;;;;7543870;19;20007;-73
2024/01/14 04:31:40;;;;;;;91.35;28.73;;;-4.10;99.90;;;;;;7578147;19;20096;-73
2024/01/14 04:34:13;;;;;;;86.95;30.67;;;-4.00;99.90;;;;;;7561276;19;20018;-72
2024/01/14 04:36:45;;;;;;;100.07;31.97;;;-4.00;99.90;;;;;;7574377;19;20051;-73
2024/01/14 04:39:17;;;;;;;96.10;29.48;;;-4.10;99.90;;;;;;7567190;19;20513;-73
2024/01/14 04:41:50;;;;;;;101.30;32.20;;;-4.00;99.90;;;;;;7574395;19;20090;-73
2024/01/14 04:44:23;;;;;;;111.68;33.10;;;-4.10;99.90;;;;;;7560339;19;20287;-73
2024/01/14 04:46:56;;;;;;;97.78;30.73;;;-4.20;99.90;;;;;;7565395;19;20940;-72
2024/01/14 04:49:28;;;;;;;100.30;32.83;;;-4.20;99.90;;;;;;7574305;19;20030;-73
2024/01/14 04:52:00;;;;;;;111.50;33.93;;;-4.10;99.90;;;;;;7574681;19;20014;-72
2024/01/14 04:54:33;;;;;;;98.60;31.55;;;-4.20;99.90;;;;;;7584130;19;20295;-72
2024/01/14 04:57:05;;;;;;;112.65;32.22;;;-4.20;99.90;;;;;;7566783;19;20019;-73
2024/01/14 04:59:38;;;;;;;87.20;30.90;;;-4.10;99.90;;;;;;7577746;19;21016;-73
2024/01/14 05:02:10;;;;;;;98.25;31.13;;;-4.00;99.90;;;;;;7582462;19;20090;-73
2024/01/14 05:04:42;;;;;;;103.03;31.97;;;-4.00;99.90;;;;;;7577435;19;20025;-72
2024/01/14 05:07:15;;;;;;;108.60;34.72;;;-4.00;99.90;;;;;;7566000;19;20102;-73
2024/01/14 05:09:47;;;;;;;100.97;32.47;;;-4.10;99.90;;;;;;7577173;19;20007;-73
2024/01/14 05:12:19;;;;;;;100.93;31.58;;;-4.10;99.90;;;;;;7563658;19;20105;-73
2024/01/14 05:14:52;;;;;;;101.35;33.33;;;-4.00;99.90;;;;;;7586417;19;20897;-72
2024/01/14 05:17:24;;;;;;;99.43;32.93;;;-3.90;99.90;;;;;;7575099;19;20052;-73
2024/01/14 05:19:57;;;;;;;98.20;32.97;;;-3.90;99.90;;;;;;7588195;19;20022;-74
2024/01/14 05:22:29;;;;;;;104.38;31.20;;;-3.90;99.90;;;;;;7594472;19;21481;-75
2024/01/14 05:25:02;;;;;;;98.28;30.02;;;-3.80;99.90;;;;;;7586616;19;20599;-75
2024/01/14 05:27:35;;;;;;;112.90;36.05;;;-3.80;99.90;;;;;;7582474;19;20714;-74
2024/01/14 05:30:08;;;;;;;92.10;32.63;;;-3.90;99.90;;;;;;7573437;19;20026;-74
2024/01/14 05:32:40;;;;;;;;;;;-3.90;99.90;;;;;;7573812;19;20068;-73
2024/01/14 05:35:13;;;;;;;97.10;30.98;;;-3.90;99.90;;;;;;7552474;19;20018;-74
2024/01/14 05:37:45;;;;;;;101.28;32.85;;;-3.90;99.90;;;;;;7568362;19;20025;-73
2024/01/14 05:40:19;;;;;;;103.83;34.63;;;-3.90;99.90;;;;;;7561170;19;20610;-75
2024/01/14 05:42:51;;;;;;;100.80;31.48;;;-3.80;99.90;;;;;;7574596;19;20392;-73
2024/01/14 05:45:24;;;;;;;109.22;36.88;;;-3.80;99.90;;;;;;7558677;19;20019;-73
2024/01/14 05:47:57;;;;;;;101.63;34.53;;;-3.70;99.90;;;;;;7568190;19;20022;-73
2024/01/14 05:50:29;;;;;;;94.65;32.53;;;-3.70;99.90;;;;;;7587604;19;20019;-73
2024/01/14 05:53:02;;;;;;;97.78;31.63;;;-3.70;99.90;;;;;;7559476;19;20022;-74
2024/01/14 05:55:34;;;;;;;101.97;33.47;;;-3.70;99.90;;;;;;7562225;19;20147;-71
2024/01/14 05:58:06;;;;;;;106.53;33.33;;;-3.60;99.90;;;;;;7564700;19;20063;-73
2024/01/14 06:00:39;;;;;;;110.57;36.43;;;-3.60;99.90;;;;;;7565174;19;20814;-75
2024/01/14 06:03:12;;;;;;;114.93;36.47;;;-3.50;99.90;;;;;;7554962;19;20082;-72
2024/01/14 06:05:44;;;;;;;117.55;38.45;;;-3.50;99.90;;;;;;7555030;19;20625;-73
2024/01/14 06:08:17;;;;;;;115.13;36.22;;;-3.40;99.90;;;;;;7556627;19;20309;-73
2024/01/14 06:10:49;;;;;;;103.78;35.80;;;-3.40;99.90;;;;;;7563147;19;20106;-74
2024/01/14 06:13:22;;;;;;;112.40;35.83;;;-3.40;99.90;;;;;;7567655;19;20074;-74
2024/01/14 06:15:54;;;;;;;105.70;35.50;;;-3.30;99.90;;;;;;7559384;19;20454;-74
2024/01/14 06:18:28;;;;;;;117.55;37.50;;;-3.30;99.90;;;;;;7556257;19;20022;-75
2024/01/14 06:21:01;;;;;;;112.65;37.03;;;-3.30;99.90;;;;;;7556867;19;20043;-75
2024/01/14 06:23:34;;;;;;;110.35;36.28;;;-3.30;99.90;;;;;;7567771;19;20026;-75
2024/01/14 06:26:06;;;;;;;115.80;36.13;;;-3.20;99.90;;;;;;7549621;19;20511;-73
2024/01/14 06:28:39;;;;;;;113.93;36.67;;;-3.20;99.90;;;;;;7565977;19;20017;-74
2024/01/14 06:31:11;;;;;;;101.05;34.08;;;-3.20;99.90;;;;;;7559258;19;20018;-73
2024/01/14 06:33:44;;;;;;;106.80;34.60;;;-3.10;99.90;;;;;;7558454;19;20415;-75
2024/01/14 06:36:19;;;;;;;103.20;32.80;;;-3.10;99.90;;;;;;7551326;19;20303;-75
2024/01/14 06:38:52;;;;;;;101.28;31.73;;;-3.10;99.90;;;;;;7560555;19;20015;-74
2024/01/14 06:41:24;;;;;;;92.95;29.98;;;-3.00;99.90;;;;;;7563100;19;20014;-74
2024/01/14 06:43:57;;;;;;;108.38;34.08;;;-3.00;99.90;;;;;;7553716;19;20018;-72
2024/01/14 06:46:30;;;;;;;95.13;31.63;;;-3.00;99.90;;;;;;7551595;19;20124;-73
2024/01/14 06:49:02;;;;;;;95.13;30.25;;;-3.10;99.90;;;;;;7535499;19;20015;-73
2024/01/14 06:51:44;;;;;;;100.32;31.00;;;-3.10;99.90;;;;;;7552017;19;20022;-74
2024/01/14 06:54:16;;;;;;;92.45;32.67;;;-3.10;99.90;;;;;;7560655;19;20086;-73
2024/01/14 06:56:52;;;;;;;85.18;28.67;;;-3.10;99.90;;;;;;7549564;19;20026;-75
2024/01/14 06:59:24;;;;;;;93.37;31.40;;;-3.10;99.90;;;;;;7554211;19;20014;-75
2024/01/14 07:01:57;;;;;;;102.63;31.30;;;-3.10;99.90;;;;;;7564639;19;20054;-75
2024/01/14 07:04:29;;;;;;;103.93;32.53;;;-3.10;99.90;;;;;;7529473;19;20006;-74
2024/01/14 07:07:02;;;;;;;94.70;32.57;;;-3.10;99.90;;;;;;7543303;19;20015;-74
2024/01/14 07:09:34;;;;;;;84.72;28.17;;;-3.00;99.90;;;;;;7549611;19;20034;-76
2024/01/14 07:12:07;;;;;;;96.10;31.35;;;-2.90;99.90;;;;;;7574733;19;20022;-75
2024/01/14 07:14:39;;;;;;;102.27;30.63;;;-2.90;99.90;;;;;;7561526;19;20011;-74
2024/01/14 07:17:12;;;;;;;86.18;28.35;;;-3.00;99.90;;;;;;7568404;19;20022;-75
2024/01/14 07:19:44;;;;;;;101.57;35.83;;;-2.90;99.90;;;;;;7571425;19;20010;-75
2024/01/14 07:22:16;;;;;;;123.30;42.65;;;-3.00;99.90;;;;;;7561627;19;20377;-75
2024/01/14 07:24:49;;;;;;;102.13;33.20;;;-3.00;99.90;;;;;;7572240;19;20048;-75
2024/01/14 07:27:21;;;;;;;92.72;31.13;;;-3.00;99.90;;;;;;7559646;19;20048;-73
2024/01/14 07:29:53;;;;;;;85.28;31.20;;;-3.10;99.90;;;;;;7569469;19;20603;-75
2024/01/14 07:32:26;;;;;;;91.45;34.08;;;-3.10;99.90;;;;;;7565501;19;20371;-75
2024/01/14 07:34:58;;;;;;;88.82;31.60;;;-3.00;99.90;;;;;;7556441;19;20027;-75
2024/01/14 07:37:33;;;;;;;89.72;31.17;;;-3.10;99.90;;;;;;7564295;19;20018;-74
2024/01/14 07:40:06;;;;;;;80.65;29.40;;;-3.00;99.90;;;;;;7536870;19;20605;-74
2024/01/14 07:42:38;;;;;;;83.03;27.65;;;-3.10;99.90;;;;;;7554561;19;20028;-74
2024/01/14 07:45:11;;;;;;;85.93;30.03;;;-3.10;99.90;;;;;;7535267;19;20038;-73
2024/01/14 07:47:44;;;;;;;85.22;31.33;;;-3.10;99.90;;;;;;7544161;19;20021;-72
2024/01/14 07:50:16;;;;;;;81.70;29.38;;;-3.20;99.90;;;;;;7517699;19;20105;-72
2024/01/14 07:52:49;;;;;;;91.53;32.05;;;-3.20;99.90;;;;;;7558983;19;20014;-74
2024/01/14 07:55:21;;;;;;;91.13;30.05;;;-3.10;99.90;;;;;;7513984;19;20019;-75
2024/01/14 07:57:53;;;;;;;92.30;32.30;;;-3.00;99.90;;;;;;7538597;19;21022;-75
2024/01/14 08:00:25;;;;;;;90.30;30.75;;;-3.00;99.90;;;;;;7558798;19;20014;-72
2024/01/14 08:02:58;;;;;;;89.00;28.70;;;-2.90;99.90;;;;;;7559355;19;20018;-72
2024/01/14 08:05:30;;;;;;;88.45;29.02;;;-3.00;99.90;;;;;;7551529;19;20448;-73
2024/01/14 08:08:04;;;;;;;77.22;26.85;;;-3.00;99.90;;;;;;7538744;19;20483;-73
2024/01/14 08:10:36;;;;;;;77.28;25.88;;;-3.00;99.90;;;;;;7568435;19;20830;-74
2024/01/14 08:13:08;;;;;;;77.00;29.07;;;-3.00;99.90;;;;;;7526200;19;20024;-74
2024/01/14 08:15:41;;;;;;;85.32;28.05;;;-3.00;99.90;;;;;;7570358;19;20492;-74
2024/01/14 08:18:32;;;;;;;80.70;27.52;;;-3.00;99.90;;;;;;7552240;19;20546;-74
2024/01/14 08:21:09;;;;;;;;;;;-3.10;99.90;;;;;;7552275;19;20014;-72
2024/01/14 08:23:41;;;;;;;84.28;29.40;;;-3.00;99.90;;;;;;7546860;19;19926;-75
2024/01/14 08:26:13;;;;;;;81.97;27.33;;;-3.00;99.90;;;;;;7545043;19;20018;-73
2024/01/14 08:28:46;;;;;;;80.60;28.27;;;-2.90;99.90;;;;;;7575345;19;20003;-75
2024/01/14 08:31:19;;;;;;;81.83;29.73;;;-2.90;99.90;;;;;;7575468;19;20310;-74
2024/01/14 08:33:51;;;;;;;77.00;25.73;;;-2.90;99.90;;;;;;7563137;19;20022;-75
2024/01/14 08:36:24;;;;;;;77.80;27.42;;;-2.80;99.90;;;;;;7563907;19;20093;-73
2024/01/14 08:38:57;;;;;;;84.35;28.85;;;-2.70;99.90;;;;;;7569867;19;20314;-73
2024/01/14 08:41:30;;;;;;;82.57;28.40;;;-2.70;99.90;;;;;;7558392;19;21001;-74
2024/01/14 08:44:06;;;;;;;81.93;28.20;;;-2.60;99.90;;;;;;7579966;19;20010;-76
2024/01/14 08:46:40;;;;;;;82.15;27.48;;;-2.70;99.90;;;;;;7569640;19;20061;-77
2024/01/14 08:49:12;;;;;;;;;;;-2.70;99.90;;;;;;7562812;19;20006;-73
2024/01/14 08:51:45;;;;;;;77.43;26.77;;;-2.50;99.90;;;;;;7576627;19;19925;-73
2024/01/14 08:54:17;;;;;;;86.25;27.98;;;-2.60;99.90;;;;;;7552241;19;20812;-74
2024/01/14 08:56:50;;;;;;;75.30;25.90;;;-2.60;99.90;;;;;;7559584;19;20449;-76
2024/01/14 08:59:23;;;;;;;80.85;28.05;;;-2.40;99.90;;;;;;7550885;19;20078;-76
2024/01/14 09:01:55;;;;;;;82.85;29.45;;;-2.40;99.90;;;;;;7543819;19;20058;-75
2024/01/14 09:04:28;;;;;;;66.25;23.73;;;-2.50;99.90;;;;;;7547479;19;20036;-77
2024/01/14 09:07:00;;;;;;;72.30;27.52;;;-2.50;99.90;;;;;;7550439;19;20014;-76
2024/01/14 09:09:33;;;;;;;73.43;27.02;;;-2.40;99.90;;;;;;7553554;19;20056;-76
2024/01/14 09:12:06;;;;;;;76.28;26.30;;;-2.30;99.90;;;;;;7574546;19;20014;-77
2024/01/14 09:14:41;;;;;;;71.63;25.67;;;-2.30;99.90;;;;;;7575447;19;20014;-76
2024/01/14 09:17:14;;;;;;;68.93;25.17;;;-2.30;99.90;;;;;;7565399;19;20262;-74
2024/01/14 09:19:46;;;;;;;77.17;26.33;;;-2.40;99.90;;;;;;7535901;19;20347;-75
2024/01/14 09:22:19;;;;;;;78.03;25.60;;;-2.30;99.90;;;;;;7547932;19;20017;-75
2024/01/14 09:24:52;;;;;;;80.25;28.35;;;-2.30;99.90;;;;;;7546849;19;20018;-75
2024/01/14 09:27:27;;;;;;;76.50;28.90;;;-2.40;99.90;;;;;;7541657;19;20653;-75
2024/01/14 09:30:00;;;;;;;74.97;26.95;;;-2.50;99.90;;;;;;7551336;19;20510;-75
2024/01/14 09:32:33;;;;;;;85.03;28.60;;;-2.50;99.90;;;;;;7540917;19;20102;-75
2024/01/14 09:35:06;;;;;;;77.10;26.17;;;-2.40;99.90;;;;;;7562024;19;20017;-74
2024/01/14 09:37:39;;;;;;;75.50;26.23;;;-2.40;99.90;;;;;;7570183;19;20015;-74
2024/01/14 09:40:11;;;;;;;59.08;19.73;;;-2.30;99.90;;;;;;7566136;19;20018;-73
2024/01/14 09:42:48;;;;;;;82.72;30.17;;;-2.20;99.90;;;;;;7562692;19;20590;-73
2024/01/14 09:45:21;;;;;;;84.38;28.30;;;-2.10;99.90;;;;;;7515643;19;20394;-74
2024/01/14 09:48:02;;;;;;;82.35;28.98;;;-2.00;99.90;;;;;;7549897;19;20014;-74
2024/01/14 09:50:36;;;;;;;82.00;27.23;;;-2.00;99.90;;;;;;7496080;19;20022;-74
2024/01/14 09:53:11;;;;;;;76.97;27.40;;;-2.00;99.90;;;;;;7562969;19;20025;-75
2024/01/14 09:55:46;;;;;;;84.00;28.90;;;-2.00;99.90;;;;;;7568577;19;20011;-75
2024/01/14 09:58:20;;;;;;;80.40;30.10;;;-2.00;99.90;;;;;;7556532;19;20014;-74
2024/01/14 10:00:56;;;;;;;78.70;27.52;;;-1.90;99.90;;;;;;7566489;19;20034;-75
2024/01/14 10:03:28;;;;;;;71.32;25.10;;;-1.90;99.90;;;;;;7520328;19;20019;-73
2024/01/14 10:06:05;;;;;;;74.30;27.50;;;-1.70;99.90;;;;;;7541210;19;20839;-73
2024/01/14 10:08:38;;;;;;;84.18;26.92;;;-1.70;99.90;;;;;;7547737;19;20011;-75
2024/01/14 10:11:10;;;;;;;82.47;30.07;;;-1.70;99.90;;;;;;7547487;19;20065;-73
2024/01/14 10:13:43;;;;;;;88.50;29.50;;;-1.70;99.90;;;;;;7565133;19;20022;-74
2024/01/14 10:16:17;;;;;;;94.07;29.07;;;-1.70;99.90;;;;;;7555856;19;21600;-76
2024/01/14 17:01:32;;;;;;;85.90;34.03;;;-2.30;99.90;;;;;;6961167;19;9999652;-73
2024/01/14 17:04:05;;;;;;;87.97;33.60;;;-2.60;99.90;;;;;;7593528;19;20753;-73
2024/01/14 17:06:39;;;;;;;93.45;34.90;;;-2.60;99.90;;;;;;7631283;19;20093;-73
2024/01/14 17:09:11;;;;;;;;;;;-2.60;99.90;;;;;;7619481;19;20018;-73
2024/01/14 17:11:44;;;;;;;88.43;35.05;;;-2.60;99.90;;;;;;7619901;19;21168;-75
2024/01/14 17:14:16;;;;;;;80.50;32.95;;;-2.50;99.90;;;;;;7615306;19;20018;-77
2024/01/14 17:16:49;;;;;;;80.63;32.90;;;-2.40;99.90;;;;;;7613680;19;20030;-76
2024/01/14 17:19:21;;;;;;;79.47;30.97;;;-2.40;99.90;;;;;;7615996;19;20311;-73
2024/01/14 17:21:57;;;;;;;75.72;32.60;;;-2.40;99.90;;;;;;7628201;19;21080;-74
2024/01/14 17:24:29;;;;;;;77.90;31.00;;;-2.40;99.90;;;;;;7628504;19;20018;-75
2024/01/14 17:27:04;;;;;;;77.03;30.13;;;-2.40;99.90;;;;;;7598100;19;20135;-75
2024/01/14 17:29:37;;;;;;;78.47;29.80;;;-2.40;99.90;;;;;;7604513;19;20018;-75
2024/01/14 17:32:10;;;;;;;86.25;34.03;;;-2.40;99.90;;;;;;7609190;19;20020;-74
2024/01/14 17:34:43;;;;;;;74.05;31.95;;;-2.40;99.90;;;;;;7623664;19;20059;-74
2024/01/14 17:37:15;;;;;;;75.10;32.87;;;-2.30;99.90;;;;;;7606507;19;20415;-73
2024/01/14 17:39:48;;;;;;;71.88;30.75;;;-2.30;99.90;;;;;;7611685;19;20015;-74
2024/01/14 17:42:20;;;;;;;66.80;29.73;;;-2.30;99.90;;;;;;7602363;19;20014;-74
2024/01/14 17:44:53;;;;;;;75.05;29.35;;;-2.30;99.90;;;;;;7620525;19;20006;-74
2024/01/14 17:47:25;;;;;;;70.25;29.08;;;-2.30;99.90;;;;;;7619856;19;20014;-74
2024/01/14 17:49:58;;;;;;;63.70;25.95;;;-2.30;99.90;;;;;;7596215;19;20051;-75
2024/01/14 17:52:32;;;;;;;66.68;28.85;;;-2.40;99.90;;;;;;7617435;19;20303;-74
2024/01/14 17:55:11;;;;;;;65.07;28.05;;;-2.50;99.90;;;;;;7571538;19;20570;-74
2024/01/14 17:57:43;;;;;;;61.42;27.10;;;-2.50;99.90;;;;;;7608807;19;20024;-77
2024/01/14 18:00:16;;;;;;;72.27;29.03;;;-2.60;99.90;;;;;;7614039;19;20582;-75
2024/01/14 18:02:49;;;;;;;70.32;28.77;;;-2.60;99.90;;;;;;7641262;19;20282;-74
2024/01/14 18:05:36;;;;;;;67.28;27.77;;;-2.60;99.90;;;;;;7616680;19;20033;-74
2024/01/14 18:08:11;;;;;;;67.78;28.13;;;-2.60;99.90;;;;;;7615941;19;20031;-75
2024/01/14 18:10:44;;;;;;;65.45;28.63;;;-2.60;99.90;;;;;;7622197;19;20750;-74
2024/01/14 18:13:16;;;;;;;64.65;28.35;;;-2.70;99.90;;;;;;7577905;19;20021;-74
2024/01/14 18:15:53;;;;;;;67.28;27.30;;;-2.80;99.90;;;;;;7579632;19;20022;-75
2024/01/14 18:18:26;;;;;;;67.57;27.88;;;-2.90;99.90;;;;;;7579450;19;20345;-74
2024/01/14 18:21:00;;;;;;;70.00;30.50;;;-3.00;99.90;;;;;;7584517;19;20010;-74
2024/01/14 18:23:33;;;;;;;69.45;29.27;;;-3.00;99.90;;;;;;7578859;19;20022;-74
2024/01/14 18:26:06;;;;;;;67.47;27.98;;;-2.90;99.90;;;;;;7581981;19;20015;-73
2024/01/14 18:28:40;;;;;;;73.90;30.05;;;-3.00;99.90;;;;;;7599497;19;21071;-73
2024/01/14 18:31:13;;;;;;;68.55;28.75;;;-3.00;99.90;;;;;;7574430;19;20029;-74
2024/01/14 18:33:47;;;;;;;66.07;27.67;;;-3.10;99.90;;;;;;7587138;19;20014;-74
2024/01/14 18:36:21;;;;;;;71.88;30.75;;;-3.20;99.90;;;;;;7580058;19;22398;-75
2024/01/14 18:38:54;;;;;;;70.97;30.63;;;-3.10;99.90;;;;;;7599786;19;20022;-74
2024/01/14 18:41:27;;;;;;;66.00;28.67;;;-3.20;99.90;;;;;;7575104;19;20629;-74
2024/01/14 18:44:00;;;;;;;68.68;31.15;;;-3.30;99.90;;;;;;7511344;19;20405;-76
2024/01/14 18:46:33;;;;;;;82.28;31.92;;;-3.40;99.90;;;;;;7553825;19;20210;-74
2024/01/14 18:49:08;;;;;;;89.68;37.95;;;-3.50;99.90;;;;;;7574807;19;20703;-75
2024/01/14 18:51:42;;;;;;;88.32;36.78;;;-3.50;99.90;;;;;;7565825;19;20019;-74
2024/01/14 18:54:15;;;;;;;81.18;33.17;;;-3.40;99.90;;;;;;7565633;19;20015;-76
2024/01/14 18:56:48;;;;;;;89.95;39.15;;;-3.40;99.90;;;;;;7562266;19;20005;-75
2024/01/14 18:59:25;;;;;;;99.77;42.83;;;-3.40;99.90;;;;;;7565754;19;20029;-74
2024/01/14 19:02:01;;;;;;;87.13;37.65;;;-3.20;99.90;;;;;;7549216;19;20018;-74
2024/01/14 19:04:44;;;;;;;84.20;36.72;;;-3.20;99.90;;;;;;7558572;19;20047;-73
2024/01/14 19:07:19;;;;;;;76.70;32.25;;;-3.20;99.90;;;;;;7536956;19;20419;-73
2024/01/14 19:09:51;;;;;;;79.17;34.77;;;-3.10;99.90;;;;;;7560659;19;20010;-75
2024/01/14 19:12:24;;;;;;;88.27;37.43;;;-3.20;99.90;;;;;;7558417;19;20098;-74
2024/01/14 19:14:57;;;;;;;103.20;42.25;;;-3.30;99.90;;;;;;7570369;19;20018;-74
2024/01/14 19:17:29;;;;;;;92.00;39.17;;;-3.50;99.90;;;;;;7567619;19;20025;-73
2024/01/14 19:20:05;;;;;;;76.55;34.42;;;-3.50;99.90;;;;;;7561046;19;20021;-75
2024/01/14 19:22:37;;;;;;;79.53;33.47;;;-3.60;99.90;;;;;;7581511;19;20022;-74
2024/01/14 19:25:10;;;;;;;79.50;34.27;;;-3.60;99.90;;;;;;7558873;19;20022;-73
2024/01/14 19:27:42;;;;;;;63.55;29.58;;;-3.50;99.90;;;;;;7556416;19;20540;-74
2024/01/14 19:30:15;;;;;;;63.15;28.73;;;-3.50;99.90;;;;;;7554359;19;20025;-74
2024/01/14 19:32:48;;;;;;;67.32;27.23;;;-3.70;99.90;;;;;;7580248;19;20022;-74
2024/01/14 19:35:20;;;;;;;85.22;38.70;;;-3.70;99.90;;;;;;7566626;19;20025;-74
2024/01/14 19:37:53;;;;;;;79.10;34.03;;;-3.70;99.90;;;;;;7553964;19;21111;-75
2024/01/14 19:40:25;;;;;;;70.18;31.25;;;-3.80;99.90;;;;;;7540222;19;20101;-73